createdAt,value
2017-11-15T00:00:37.000Z,5.49
2017-11-15T00:01:37.000Z,5.49
2017-11-15T00:02:37.000Z,5.48
2017-11-15T00:03:37.000Z,5.48
2017-11-15T00:04:37.000Z,5.47
2017-11-15T00:05:37.000Z,5.47
2017-11-15T00:06:37.000Z,5.48
2017-11-15T00:07:37.000Z,5.48
2017-11-15T00:08:37.000Z,5.48
2017-11-15T00:09:37.000Z,5.48
2017-11-15T00:10:37.000Z,5.50
2017-11-15T00:11:37.000Z,5.50
2017-11-15T00:12:37.000Z,5.51
2017-11-15T00:13:37.000Z,5.50
2017-11-15T00:14:38.000Z,5.50
2017-11-15T00:15:38.000Z,5.50
2017-11-15T00:16:37.000Z,5.51
2017-11-15T00:17:37.000Z,5.52
2017-11-15T00:18:37.000Z,5.51
2017-11-15T00:19:37.000Z,5.53
2017-11-15T00:20:37.000Z,5.52
2017-11-15T00:21:37.000Z,5.53
2017-11-15T00:22:37.000Z,5.54
2017-11-15T00:23:37.000Z,5.54
2017-11-15T00:24:38.000Z,5.52
2017-11-15T00:25:38.000Z,5.53
2017-11-15T00:26:38.000Z,5.52
2017-11-15T00:27:38.000Z,5.52
2017-11-15T00:28:38.000Z,5.52
2017-11-15T00:29:38.000Z,5.52
2017-11-15T00:30:38.000Z,5.52
2017-11-15T00:31:38.000Z,5.53
2017-11-15T00:32:38.000Z,5.54
2017-11-15T00:33:38.000Z,5.56
2017-11-15T00:34:38.000Z,5.56
2017-11-15T00:35:38.000Z,5.57
2017-11-15T00:36:38.000Z,5.57
2017-11-15T00:37:38.000Z,5.57
2017-11-15T00:38:38.000Z,5.57
2017-11-15T00:39:38.000Z,5.57
2017-11-15T00:40:38.000Z,5.56
2017-11-15T00:41:38.000Z,5.57
2017-11-15T00:42:38.000Z,5.56
2017-11-15T00:43:38.000Z,5.56
2017-11-15T00:44:38.000Z,5.55
2017-11-15T00:45:38.000Z,5.55
2017-11-15T00:46:38.000Z,5.55
2017-11-15T00:47:38.000Z,5.54
2017-11-15T00:48:38.000Z,5.55
2017-11-15T00:49:38.000Z,5.56
2017-11-15T00:50:38.000Z,5.57
2017-11-15T00:51:38.000Z,5.58
2017-11-15T00:52:38.000Z,5.59
2017-11-15T00:53:38.000Z,5.59
2017-11-15T00:54:38.000Z,5.62
2017-11-15T00:55:38.000Z,5.61
2017-11-15T00:56:38.000Z,5.59
2017-11-15T00:57:38.000Z,5.61
2017-11-15T00:58:38.000Z,5.61
2017-11-15T00:59:38.000Z,5.59
2017-11-15T01:00:38.000Z,5.58
2017-11-15T01:01:38.000Z,5.57
2017-11-15T01:02:38.000Z,5.57
2017-11-15T01:03:38.000Z,5.58
2017-11-15T01:04:38.000Z,5.58
2017-11-15T01:05:38.000Z,5.59
2017-11-15T01:06:38.000Z,5.59
2017-11-15T01:07:38.000Z,5.60
2017-11-15T01:08:38.000Z,5.60
2017-11-15T01:09:38.000Z,5.58
2017-11-15T01:10:38.000Z,5.56
2017-11-15T01:11:38.000Z,5.56
2017-11-15T01:12:38.000Z,5.56
2017-11-15T01:13:38.000Z,5.58
2017-11-15T01:14:38.000Z,5.58
2017-11-15T01:15:38.000Z,5.59
2017-11-15T01:16:38.000Z,5.58
2017-11-15T01:17:38.000Z,5.58
2017-11-15T01:18:38.000Z,5.58
2017-11-15T01:19:38.000Z,5.59
2017-11-15T01:20:38.000Z,5.59
2017-11-15T01:21:38.000Z,5.58
2017-11-15T01:22:38.000Z,5.60
2017-11-15T01:23:38.000Z,5.59
2017-11-15T01:24:38.000Z,5.59
2017-11-15T01:25:38.000Z,5.59
2017-11-15T01:26:38.000Z,5.57
2017-11-15T01:27:38.000Z,5.57
2017-11-15T01:28:38.000Z,5.58
2017-11-15T01:29:38.000Z,5.58
2017-11-15T01:30:38.000Z,5.57
2017-11-15T01:31:38.000Z,5.58
2017-11-15T01:32:38.000Z,5.58
2017-11-15T01:33:38.000Z,5.58
2017-11-15T01:34:38.000Z,5.58
2017-11-15T01:35:38.000Z,5.58
2017-11-15T01:36:38.000Z,5.59
2017-11-15T01:37:38.000Z,5.58
2017-11-15T01:38:38.000Z,5.57
2017-11-15T01:39:38.000Z,5.58
2017-11-15T01:40:38.000Z,5.58
2017-11-15T01:41:38.000Z,5.57
2017-11-15T01:42:38.000Z,5.59
2017-11-15T01:43:38.000Z,5.59
2017-11-15T01:44:38.000Z,5.60
2017-11-15T01:45:38.000Z,5.59
2017-11-15T01:46:38.000Z,5.59
2017-11-15T01:47:38.000Z,5.60
2017-11-15T01:48:38.000Z,5.60
2017-11-15T01:49:38.000Z,5.59
2017-11-15T01:50:38.000Z,5.59
2017-11-15T01:51:38.000Z,5.58
2017-11-15T01:52:38.000Z,5.58
2017-11-15T01:53:38.000Z,5.59
2017-11-15T01:54:38.000Z,5.59
2017-11-15T01:55:38.000Z,5.59
2017-11-15T01:56:38.000Z,5.59
2017-11-15T01:57:38.000Z,5.59
2017-11-15T01:58:38.000Z,5.59
2017-11-15T01:59:38.000Z,5.59
2017-11-15T02:02:32.000Z,5.60
2017-11-15T02:02:34.000Z,5.60
2017-11-15T02:02:38.000Z,5.59
2017-11-15T02:05:44.000Z,5.59
2017-11-15T02:05:46.000Z,5.59
2017-11-15T02:05:47.000Z,5.61
2017-11-15T02:08:30.000Z,5.61
2017-11-15T02:08:32.000Z,5.61
2017-11-15T02:08:38.000Z,5.61
2017-11-15T02:11:40.000Z,5.61
2017-11-15T02:11:42.000Z,5.62
2017-11-15T02:11:43.000Z,5.61
2017-11-15T02:14:30.000Z,5.61
2017-11-15T02:14:32.000Z,5.60
2017-11-15T02:14:38.000Z,5.58
2017-11-15T02:17:44.000Z,5.57
2017-11-15T02:17:46.000Z,5.56
2017-11-15T02:17:47.000Z,5.56
2017-11-15T02:21:07.000Z,5.55
2017-11-15T02:21:09.000Z,5.54
2017-11-15T02:21:09.000Z,5.55
2017-11-15T02:23:44.000Z,5.54
2017-11-15T02:23:46.000Z,5.54
2017-11-15T02:23:47.000Z,5.53
2017-11-15T02:26:31.000Z,5.52
2017-11-15T02:26:33.000Z,5.51
2017-11-15T02:26:38.000Z,5.53
2017-11-15T02:33:01.000Z,5.53
2017-11-15T02:33:03.000Z,5.53
2017-11-15T02:33:03.000Z,5.53
2017-11-15T02:33:04.000Z,5.51
2017-11-15T02:33:05.000Z,5.52
2017-11-15T02:33:06.000Z,5.52
2017-11-15T02:35:44.000Z,5.52
2017-11-15T02:35:46.000Z,5.53
2017-11-15T02:35:47.000Z,5.51
2017-11-15T02:38:32.000Z,5.51
2017-11-15T02:38:34.000Z,5.50
2017-11-15T02:38:38.000Z,5.50
2017-11-15T02:41:44.000Z,5.50
2017-11-15T02:41:46.000Z,5.49
2017-11-15T02:41:47.000Z,5.49
2017-11-15T02:44:31.000Z,5.50
2017-11-15T02:44:33.000Z,5.49
2017-11-15T02:44:38.000Z,5.49
2017-11-15T02:47:44.000Z,5.49
2017-11-15T02:47:47.000Z,5.49
2017-11-15T02:47:48.000Z,5.50
2017-11-15T02:51:06.000Z,5.50
2017-11-15T02:51:08.000Z,5.52
2017-11-15T02:51:09.000Z,5.51
2017-11-15T02:53:44.000Z,5.51
2017-11-15T02:53:46.000Z,5.52
2017-11-15T02:53:47.000Z,5.51
2017-11-15T02:56:31.000Z,5.51
2017-11-15T02:56:32.000Z,5.50
2017-11-15T02:56:38.000Z,5.52
2017-11-15T02:59:42.000Z,5.50
2017-11-15T02:59:44.000Z,5.50
2017-11-15T02:59:45.000Z,5.51
2017-11-15T03:00:38.000Z,5.52
2017-11-15T03:01:38.000Z,5.53
2017-11-15T03:02:38.000Z,5.53
2017-11-15T03:03:38.000Z,5.52
2017-11-15T03:04:38.000Z,5.53
2017-11-15T03:05:38.000Z,5.53
2017-11-15T03:06:38.000Z,5.53
2017-11-15T03:07:38.000Z,5.53
2017-11-15T03:08:38.000Z,5.55
2017-11-15T03:09:38.000Z,5.54
2017-11-15T03:10:38.000Z,5.54
2017-11-15T03:11:38.000Z,5.55
2017-11-15T03:12:38.000Z,5.57
2017-11-15T03:13:38.000Z,5.57
2017-11-15T03:14:38.000Z,5.58
2017-11-15T03:15:38.000Z,5.58
2017-11-15T03:16:38.000Z,5.57
2017-11-15T03:17:38.000Z,5.56
2017-11-15T03:18:38.000Z,5.56
2017-11-15T03:19:38.000Z,5.56
2017-11-15T03:20:38.000Z,5.56
2017-11-15T03:21:38.000Z,5.55
2017-11-15T03:22:38.000Z,5.56
2017-11-15T03:23:38.000Z,5.55
2017-11-15T03:24:38.000Z,5.54
2017-11-15T03:25:38.000Z,5.54
2017-11-15T03:26:38.000Z,5.54
2017-11-15T03:27:38.000Z,5.54
2017-11-15T03:28:38.000Z,5.55
2017-11-15T03:29:38.000Z,5.55
2017-11-15T03:30:38.000Z,5.54
2017-11-15T03:31:38.000Z,5.54
2017-11-15T03:32:38.000Z,5.54
2017-11-15T03:33:38.000Z,5.52
2017-11-15T03:34:38.000Z,5.52
2017-11-15T03:35:38.000Z,5.51
2017-11-15T03:36:38.000Z,5.51
2017-11-15T03:37:38.000Z,5.52
2017-11-15T03:38:38.000Z,5.51
2017-11-15T03:39:38.000Z,5.52
2017-11-15T03:40:38.000Z,5.51
2017-11-15T03:41:38.000Z,5.52
2017-11-15T03:42:38.000Z,5.51
2017-11-15T03:43:38.000Z,5.50
2017-11-15T03:44:38.000Z,5.50
2017-11-15T03:45:38.000Z,5.50
2017-11-15T03:46:38.000Z,5.50
2017-11-15T03:47:38.000Z,5.50
2017-11-15T03:48:38.000Z,5.50
2017-11-15T03:49:38.000Z,5.50
2017-11-15T03:50:38.000Z,5.50
2017-11-15T03:51:38.000Z,5.50
2017-11-15T03:52:38.000Z,5.50
2017-11-15T03:53:38.000Z,5.49
2017-11-15T03:54:38.000Z,5.50
2017-11-15T03:55:38.000Z,5.49
2017-11-15T03:56:38.000Z,5.48
2017-11-15T03:57:38.000Z,5.48
2017-11-15T03:58:38.000Z,5.46
2017-11-15T03:59:38.000Z,5.47
2017-11-15T04:00:38.000Z,5.47
2017-11-15T04:01:38.000Z,5.48
2017-11-15T04:02:38.000Z,5.49
2017-11-15T04:03:38.000Z,5.50
2017-11-15T04:04:38.000Z,5.51
2017-11-15T04:05:38.000Z,5.51
2017-11-15T04:06:38.000Z,5.53
2017-11-15T04:07:38.000Z,5.53
2017-11-15T04:08:38.000Z,5.53
2017-11-15T04:09:38.000Z,5.53
2017-11-15T04:10:38.000Z,5.53
2017-11-15T04:11:38.000Z,5.53
2017-11-15T04:12:38.000Z,5.53
2017-11-15T04:13:38.000Z,5.53
2017-11-15T04:14:38.000Z,5.52
2017-11-15T04:15:38.000Z,5.52
2017-11-15T04:16:38.000Z,5.53
2017-11-15T04:17:38.000Z,5.54
2017-11-15T04:18:38.000Z,5.53
2017-11-15T04:19:38.000Z,5.53
2017-11-15T04:20:38.000Z,5.53
2017-11-15T04:21:38.000Z,5.53
2017-11-15T04:22:38.000Z,5.52
2017-11-15T04:23:38.000Z,5.53
2017-11-15T04:24:38.000Z,5.53
2017-11-15T04:25:38.000Z,5.53
2017-11-15T04:26:38.000Z,5.52
2017-11-15T04:27:38.000Z,5.52
2017-11-15T04:28:38.000Z,5.53
2017-11-15T04:29:38.000Z,5.55
2017-11-15T04:30:38.000Z,5.55
2017-11-15T04:31:50.000Z,5.55
2017-11-15T04:33:33.000Z,5.55
2017-11-15T04:33:35.000Z,5.55
2017-11-15T04:33:38.000Z,5.54
2017-11-15T04:34:38.000Z,5.55
2017-11-15T04:35:38.000Z,5.56
2017-11-15T04:36:38.000Z,5.56
2017-11-15T04:37:38.000Z,5.57
2017-11-15T04:38:38.000Z,5.55
2017-11-15T04:39:38.000Z,5.55
2017-11-15T04:40:38.000Z,5.54
2017-11-15T04:41:38.000Z,5.55
2017-11-15T04:42:38.000Z,5.55
2017-11-15T04:43:38.000Z,5.56
2017-11-15T04:44:38.000Z,5.57
2017-11-15T04:45:38.000Z,5.57
2017-11-15T04:46:38.000Z,5.58
2017-11-15T04:47:38.000Z,5.57
2017-11-15T04:48:38.000Z,5.56
2017-11-15T04:49:38.000Z,5.56
2017-11-15T04:50:38.000Z,5.56
2017-11-15T04:51:38.000Z,5.56
2017-11-15T04:52:38.000Z,5.54
2017-11-15T04:53:38.000Z,5.54
2017-11-15T04:54:38.000Z,5.54
2017-11-15T04:55:38.000Z,5.52
2017-11-15T04:56:38.000Z,5.52
2017-11-15T04:57:38.000Z,5.53
2017-11-15T04:58:38.000Z,5.53
2017-11-15T04:59:38.000Z,5.52
2017-11-15T05:00:38.000Z,5.53
2017-11-15T05:01:38.000Z,5.54
2017-11-15T05:02:38.000Z,5.53
2017-11-15T05:03:38.000Z,5.53
2017-11-15T05:04:38.000Z,5.54
2017-11-15T05:05:38.000Z,5.54
2017-11-15T05:06:38.000Z,5.53
2017-11-15T05:07:38.000Z,5.54
2017-11-15T05:08:38.000Z,5.55
2017-11-15T05:09:38.000Z,5.54
2017-11-15T05:10:38.000Z,5.54
2017-11-15T05:11:38.000Z,5.54
2017-11-15T05:12:38.000Z,5.54
2017-11-15T05:13:38.000Z,5.54
2017-11-15T05:14:38.000Z,5.54
2017-11-15T05:15:38.000Z,5.54
2017-11-15T05:16:38.000Z,5.55
2017-11-15T05:17:38.000Z,5.54
2017-11-15T05:18:38.000Z,5.53
2017-11-15T05:19:38.000Z,5.53
2017-11-15T05:20:38.000Z,5.54
2017-11-15T05:21:38.000Z,5.53
2017-11-15T05:22:38.000Z,5.54
2017-11-15T05:23:38.000Z,5.53
2017-11-15T05:24:38.000Z,5.53
2017-11-15T05:25:38.000Z,5.55
2017-11-15T05:26:38.000Z,5.55
2017-11-15T05:27:38.000Z,5.55
2017-11-15T05:28:38.000Z,5.56
2017-11-15T05:29:38.000Z,5.57
2017-11-15T05:30:38.000Z,5.57
2017-11-15T05:31:38.000Z,5.57
2017-11-15T05:32:38.000Z,5.57
2017-11-15T05:33:38.000Z,5.56
2017-11-15T05:34:38.000Z,5.57
2017-11-15T05:35:38.000Z,5.56
2017-11-15T05:36:38.000Z,5.57
2017-11-15T05:37:38.000Z,5.57
2017-11-15T05:38:38.000Z,5.57
2017-11-15T05:39:38.000Z,5.57
2017-11-15T05:40:38.000Z,5.58
2017-11-15T05:41:38.000Z,5.58
2017-11-15T05:42:38.000Z,5.58
2017-11-15T05:43:38.000Z,5.58
2017-11-15T05:44:38.000Z,5.57
2017-11-15T05:45:38.000Z,5.57
2017-11-15T05:46:38.000Z,5.58
2017-11-15T05:47:38.000Z,5.58
2017-11-15T05:48:38.000Z,5.57
2017-11-15T05:49:38.000Z,5.58
2017-11-15T05:50:38.000Z,5.58
2017-11-15T05:51:38.000Z,5.59
2017-11-15T05:52:38.000Z,5.58
2017-11-15T05:53:38.000Z,5.59
2017-11-15T05:54:38.000Z,5.59
2017-11-15T05:55:38.000Z,5.58
2017-11-15T05:56:38.000Z,5.58
2017-11-15T05:57:38.000Z,5.58
2017-11-15T05:58:38.000Z,5.58
2017-11-15T05:59:38.000Z,5.57
2017-11-15T06:00:38.000Z,5.57
2017-11-15T06:01:38.000Z,5.57
2017-11-15T06:02:38.000Z,5.57
2017-11-15T06:03:38.000Z,5.57
2017-11-15T06:04:38.000Z,5.58
2017-11-15T06:05:38.000Z,5.56
2017-11-15T06:06:38.000Z,5.56
2017-11-15T06:07:38.000Z,5.56
2017-11-15T06:08:38.000Z,5.58
2017-11-15T06:09:38.000Z,5.57
2017-11-15T06:10:38.000Z,5.57
2017-11-15T06:11:38.000Z,5.57
2017-11-15T06:12:39.000Z,5.57
2017-11-15T06:13:39.000Z,5.57
2017-11-15T06:14:39.000Z,5.56
2017-11-15T06:15:39.000Z,5.57
2017-11-15T06:16:39.000Z,5.58
2017-11-15T06:17:39.000Z,5.58
2017-11-15T06:18:39.000Z,5.58
2017-11-15T06:19:39.000Z,5.58
2017-11-15T06:20:39.000Z,5.61
2017-11-15T06:21:39.000Z,5.59
2017-11-15T06:22:39.000Z,5.59
2017-11-15T06:23:39.000Z,5.61
2017-11-15T06:24:39.000Z,5.61
2017-11-15T06:25:39.000Z,5.62
2017-11-15T06:26:39.000Z,5.61
2017-11-15T06:27:39.000Z,5.64
2017-11-15T06:28:39.000Z,5.64
2017-11-15T06:29:39.000Z,5.64
2017-11-15T06:30:39.000Z,5.65
2017-11-15T06:31:39.000Z,5.64
2017-11-15T06:32:39.000Z,5.64
2017-11-15T06:33:39.000Z,5.64
2017-11-15T06:34:39.000Z,5.65
2017-11-15T06:35:39.000Z,5.65
2017-11-15T06:36:39.000Z,5.64
2017-11-15T06:37:39.000Z,5.66
2017-11-15T06:38:39.000Z,5.64
2017-11-15T06:39:39.000Z,5.65
2017-11-15T06:40:39.000Z,5.64
2017-11-15T06:41:39.000Z,5.64
2017-11-15T06:42:39.000Z,5.65
2017-11-15T06:43:39.000Z,5.65
2017-11-15T06:44:39.000Z,5.67
2017-11-15T06:45:39.000Z,5.67
2017-11-15T06:46:39.000Z,5.68
2017-11-15T06:47:39.000Z,5.70
2017-11-15T06:48:39.000Z,5.70
2017-11-15T06:49:39.000Z,5.70
2017-11-15T06:50:39.000Z,5.70
2017-11-15T06:51:39.000Z,5.70
2017-11-15T06:52:39.000Z,5.71
2017-11-15T06:53:39.000Z,5.70
2017-11-15T06:54:39.000Z,5.71
2017-11-15T06:55:39.000Z,5.71
2017-11-15T06:56:39.000Z,5.71
2017-11-15T06:57:39.000Z,5.69
2017-11-15T06:58:39.000Z,5.72
2017-11-15T06:59:39.000Z,5.70
2017-11-15T07:00:39.000Z,5.73
2017-11-15T07:01:39.000Z,5.74
2017-11-15T07:02:39.000Z,5.74
2017-11-15T07:03:39.000Z,5.75
2017-11-15T07:04:39.000Z,5.75
2017-11-15T07:05:39.000Z,5.77
2017-11-15T07:06:39.000Z,5.78
2017-11-15T07:07:39.000Z,5.79
2017-11-15T07:08:39.000Z,5.79
2017-11-15T07:09:39.000Z,5.79
2017-11-15T07:10:39.000Z,5.81
2017-11-15T07:11:39.000Z,5.83
2017-11-15T07:12:39.000Z,5.83
2017-11-15T07:13:39.000Z,5.84
2017-11-15T07:14:39.000Z,5.85
2017-11-15T07:15:39.000Z,5.85
2017-11-15T07:16:39.000Z,5.86
2017-11-15T07:17:39.000Z,5.87
2017-11-15T07:18:39.000Z,5.87
2017-11-15T07:19:39.000Z,5.89
2017-11-15T07:20:39.000Z,5.91
2017-11-15T07:21:39.000Z,5.91
2017-11-15T18:04:36.000Z,7.54
2017-11-15T18:04:40.000Z,7.55
2017-11-15T18:05:40.000Z,7.57
2017-11-15T18:06:41.000Z,7.56
2017-11-15T18:07:41.000Z,7.58
2017-11-15T18:08:41.000Z,7.57
2017-11-15T18:09:41.000Z,7.55
2017-11-15T18:10:41.000Z,7.55
2017-11-15T18:11:41.000Z,7.53
2017-11-15T18:12:41.000Z,7.55
2017-11-15T18:13:41.000Z,7.53
2017-11-15T18:14:41.000Z,7.52
2017-11-15T18:15:41.000Z,7.52
2017-11-15T18:16:41.000Z,7.52
2017-11-15T18:17:41.000Z,7.52
2017-11-15T18:18:41.000Z,7.52
2017-11-15T18:19:41.000Z,7.51
2017-11-15T18:20:41.000Z,7.51
2017-11-15T18:22:25.000Z,7.51
2017-11-15T18:22:28.000Z,7.51
2017-11-15T18:22:41.000Z,7.50
2017-11-15T18:23:41.000Z,7.50
2017-11-15T18:25:47.000Z,7.50
2017-11-15T18:26:41.000Z,7.49
2017-11-15T18:27:41.000Z,7.49
2017-11-15T18:28:41.000Z,7.49
2017-11-15T18:29:41.000Z,7.46
2017-11-15T18:30:41.000Z,7.48
2017-11-15T18:31:41.000Z,7.48
2017-11-15T18:32:41.000Z,7.48
2017-11-15T18:33:41.000Z,7.48
2017-11-15T18:34:41.000Z,7.47
2017-11-15T18:35:41.000Z,7.48
2017-11-15T18:36:41.000Z,7.47
2017-11-15T18:37:41.000Z,7.46
2017-11-15T18:53:32.000Z,7.60
2017-11-15T18:55:52.000Z,7.56
2017-11-15T18:56:45.000Z,7.55
2017-11-15T20:28:41.000Z,7.36
2017-11-15T20:29:41.000Z,7.36
2017-11-15T21:05:25.000Z,7.27
2017-11-15T21:14:26.000Z,7.26
2017-11-15T21:14:41.000Z,7.26
2017-11-15T21:15:41.000Z,7.25
2017-11-15T21:16:41.000Z,7.27
2017-11-15T21:17:41.000Z,7.28
2017-11-15T21:18:41.000Z,7.28
2017-11-15T21:19:41.000Z,7.28
2017-11-15T21:20:41.000Z,7.29
2017-11-15T21:21:41.000Z,7.30
2017-11-15T21:22:41.000Z,7.31
2017-11-15T21:23:41.000Z,7.32
2017-11-15T21:24:41.000Z,7.32
2017-11-15T21:25:41.000Z,7.33
2017-11-15T21:26:41.000Z,7.33
2017-11-15T21:27:41.000Z,7.33
2017-11-15T21:28:41.000Z,7.32
2017-11-15T21:29:41.000Z,7.32
2017-11-15T21:30:41.000Z,7.31
2017-11-15T21:31:41.000Z,7.29
2017-11-15T21:32:41.000Z,7.31
2017-11-15T21:33:41.000Z,7.29
2017-11-15T21:34:41.000Z,7.29
2017-11-15T21:35:41.000Z,7.29
2017-11-15T21:36:41.000Z,7.29
2017-11-15T21:37:41.000Z,7.28
2017-11-15T21:38:41.000Z,7.27
2017-11-15T21:39:41.000Z,7.26
2017-11-15T21:40:41.000Z,7.25
2017-11-15T21:41:41.000Z,7.22
2017-11-15T21:42:41.000Z,7.22
2017-11-15T21:43:41.000Z,7.22
2017-11-15T21:44:41.000Z,7.22
2017-11-15T21:45:41.000Z,7.21
2017-11-15T21:46:41.000Z,7.21
2017-11-15T21:47:41.000Z,7.23
2017-11-15T21:48:41.000Z,7.23
2017-11-15T21:49:41.000Z,7.23
2017-11-15T21:50:41.000Z,7.23
2017-11-15T21:51:41.000Z,7.23
2017-11-15T21:52:41.000Z,7.23
2017-11-15T21:53:41.000Z,7.22
2017-11-15T21:54:41.000Z,7.23
2017-11-15T21:55:41.000Z,7.23
2017-11-15T21:56:41.000Z,7.22
2017-11-15T21:57:41.000Z,7.22
2017-11-15T21:58:41.000Z,7.22
2017-11-15T21:59:41.000Z,7.21
2017-11-15T22:00:41.000Z,7.21
2017-11-15T22:01:41.000Z,7.20
2017-11-15T22:02:41.000Z,7.21
2017-11-15T22:03:41.000Z,7.20
2017-11-15T22:04:41.000Z,7.19
2017-11-15T22:05:41.000Z,7.20
2017-11-15T22:06:41.000Z,7.18
2017-11-15T22:07:41.000Z,7.20
2017-11-15T22:08:41.000Z,7.19
2017-11-15T22:09:41.000Z,7.19
2017-11-15T22:10:41.000Z,7.18
2017-11-15T22:11:41.000Z,7.18
2017-11-15T22:12:41.000Z,7.18
2017-11-15T22:13:41.000Z,7.17
2017-11-15T22:14:41.000Z,7.17
2017-11-15T22:15:41.000Z,7.18
2017-11-15T22:16:41.000Z,7.17
2017-11-15T22:17:41.000Z,7.16
2017-11-15T22:18:41.000Z,7.15
2017-11-15T22:19:41.000Z,7.16
2017-11-15T22:20:41.000Z,7.16
2017-11-15T22:21:41.000Z,7.15
2017-11-15T22:22:41.000Z,7.14
2017-11-15T22:23:41.000Z,7.13
2017-11-15T22:24:41.000Z,7.12
2017-11-15T22:25:41.000Z,7.10
2017-11-15T22:26:41.000Z,7.10
2017-11-15T22:27:41.000Z,7.08
2017-11-15T22:28:41.000Z,7.09
2017-11-15T22:29:41.000Z,7.07
2017-11-15T22:30:41.000Z,7.07
2017-11-15T22:31:41.000Z,7.06
2017-11-15T22:32:41.000Z,7.07
2017-11-15T22:33:41.000Z,7.07
2017-11-15T22:34:41.000Z,7.07
2017-11-15T22:35:41.000Z,7.05
2017-11-15T22:36:41.000Z,7.05
2017-11-15T22:37:41.000Z,7.04
2017-11-15T22:38:41.000Z,7.05
2017-11-15T22:39:41.000Z,7.05
2017-11-15T22:40:41.000Z,7.06
2017-11-15T22:41:41.000Z,7.04
2017-11-15T22:42:41.000Z,7.04
2017-11-15T22:43:41.000Z,7.03
2017-11-15T22:44:41.000Z,7.03
2017-11-15T22:45:41.000Z,7.03
2017-11-15T22:46:41.000Z,7.03
2017-11-15T22:47:41.000Z,7.03
2017-11-15T22:48:41.000Z,7.04
2017-11-15T22:49:41.000Z,7.03
2017-11-15T22:50:41.000Z,7.01
2017-11-15T22:51:41.000Z,7.02
2017-11-15T22:52:41.000Z,7.01
2017-11-15T22:53:41.000Z,6.99
2017-11-15T22:54:41.000Z,6.99
2017-11-15T22:55:41.000Z,6.97
2017-11-15T22:56:41.000Z,6.96
2017-11-15T22:57:41.000Z,6.96
2017-11-15T22:58:41.000Z,6.95
2017-11-15T22:59:41.000Z,6.95
2017-11-15T23:00:41.000Z,6.92
2017-11-15T23:01:41.000Z,6.91
2017-11-15T23:02:41.000Z,6.91
2017-11-15T23:03:41.000Z,6.92
2017-11-15T23:04:41.000Z,6.91
2017-11-15T23:05:41.000Z,6.90
2017-11-15T23:06:41.000Z,6.91
2017-11-15T23:07:41.000Z,6.91
2017-11-15T23:08:41.000Z,6.91
2017-11-15T23:09:41.000Z,6.92
2017-11-15T23:10:41.000Z,6.92
2017-11-15T23:11:41.000Z,6.93
2017-11-15T23:12:41.000Z,6.92
2017-11-15T23:13:41.000Z,6.91
2017-11-15T23:14:41.000Z,6.92
2017-11-15T23:15:41.000Z,6.91
2017-11-15T23:16:41.000Z,6.91
2017-11-15T23:17:41.000Z,6.89
2017-11-15T23:18:41.000Z,6.88
2017-11-15T23:19:41.000Z,6.87
2017-11-15T23:20:41.000Z,6.84
2017-11-15T23:21:41.000Z,6.84
2017-11-15T23:22:41.000Z,6.81
2017-11-15T23:23:41.000Z,6.79
2017-11-15T23:24:41.000Z,6.76
2017-11-15T23:25:41.000Z,6.76
2017-11-15T23:26:41.000Z,6.72
2017-11-15T23:27:41.000Z,6.71
2017-11-15T23:28:41.000Z,6.70
2017-11-15T23:29:41.000Z,6.69
2017-11-15T23:30:41.000Z,6.69
2017-11-15T23:31:41.000Z,6.70
2017-11-15T23:32:41.000Z,6.71
2017-11-15T23:33:41.000Z,6.71
2017-11-15T23:34:41.000Z,6.72
2017-11-15T23:35:41.000Z,6.72
2017-11-15T23:36:41.000Z,6.71
2017-11-15T23:37:41.000Z,6.70
2017-11-15T23:38:41.000Z,6.67
2017-11-15T23:39:41.000Z,6.65
2017-11-15T23:40:41.000Z,6.63
2017-11-15T23:41:41.000Z,6.60
2017-11-15T23:42:41.000Z,6.58
2017-11-15T23:43:41.000Z,6.57
2017-11-15T23:44:42.000Z,6.56
2017-11-15T23:45:42.000Z,6.57
2017-11-15T23:46:42.000Z,6.58
2017-11-15T23:47:42.000Z,6.59
2017-11-15T23:48:42.000Z,6.59
2017-11-15T23:49:42.000Z,6.58
2017-11-15T23:50:42.000Z,6.58
2017-11-15T23:51:42.000Z,6.57
2017-11-15T23:52:42.000Z,6.59
2017-11-15T23:53:42.000Z,6.62
2017-11-15T23:54:42.000Z,6.63
2017-11-15T23:55:42.000Z,6.65
2017-11-15T23:56:42.000Z,6.67
2017-11-15T23:57:42.000Z,6.67
2017-11-15T23:58:42.000Z,6.66
2017-11-15T23:59:42.000Z,6.64
